Time;durP1;ratioP1;P1;durP2;ratioP2;P2;SDS_P1;SDS_P2;PMS_P1;PMS_P2;Temp;Humidity;BMP_temperature;BMP_pressure;BME280_temperature;BME280_humidity;BME280_pressure;Samples;Min_cycle;Max_cycle;Signal;HPM_P1;HPM_P2
2022/12/07 00:01:57;;;;;;;10.10;7.80;;;4.80;99.90;;;;;;10400059;28;20217;-72
2022/12/07 00:06:57;;;;;;;10.10;7.67;;;4.80;99.90;;;;;;10395390;28;20311;-72
2022/12/07 00:11:58;;;;;;;10.83;8.27;;;4.80;99.90;;;;;;10398022;28;20691;-73
2022/12/07 00:16:59;;;;;;;10.47;8.07;;;4.80;99.90;;;;;;10398901;28;20228;-73
2022/12/07 00:21:59;;;;;;;12.80;7.67;;;4.80;99.90;;;;;;10393246;28;20279;-73
2022/12/07 00:27:00;;;;;;;10.83;8.47;;;4.80;99.90;;;;;;10393707;28;20802;-73
2022/12/07 00:32:00;;;;;;;10.47;7.57;;;4.80;99.90;;;;;;10382446;28;20213;-74
2022/12/07 00:37:01;;;;;;;13.40;8.83;;;4.80;99.90;;;;;;10390898;28;20240;-74
2022/12/07 00:42:02;;;;;;;10.87;8.43;;;4.80;99.90;;;;;;10387514;28;20364;-74
2022/12/07 00:47:03;;;;;;;10.97;8.17;;;4.80;99.90;;;;;;10373458;28;20219;-75
2022/12/07 00:52:03;;;;;;;13.07;8.30;;;4.80;99.90;;;;;;10380129;28;20219;-73
2022/12/07 00:57:04;;;;;;;9.80;7.80;;;4.80;99.90;;;;;;10415953;28;20229;-74
2022/12/07 01:02:06;;;;;;;11.10;8.40;;;4.70;99.90;;;;;;10386415;28;20213;-74
2022/12/07 01:07:06;;;;;;;11.67;7.97;;;4.70;99.90;;;;;;10399559;28;20217;-73
2022/12/07 01:12:07;;;;;;;11.60;8.30;;;4.60;99.90;;;;;;10390825;28;20703;-77
2022/12/07 01:17:09;;;;;;;11.13;7.97;;;4.50;99.90;;;;;;10398059;28;20274;-75
2022/12/07 01:22:10;;;;;;;10.80;8.10;;;4.50;99.90;;;;;;10393828;28;20217;-76
2022/12/07 01:27:10;;;;;;;12.20;8.97;;;4.50;99.90;;;;;;10385962;28;20221;-77
2022/12/07 01:32:11;;;;;;;13.73;8.10;;;4.50;99.90;;;;;;10389438;28;20726;-78
2022/12/07 01:37:12;;;;;;;14.13;7.90;;;4.50;99.90;;;;;;10392894;28;20260;-76
2022/12/07 01:42:12;;;;;;;10.23;7.43;;;4.60;99.90;;;;;;10393234;28;20216;-74
2022/12/07 01:47:14;;;;;;;11.53;7.63;;;4.50;99.90;;;;;;10390147;28;20640;-73
2022/12/07 01:52:29;;;;;;;11.07;8.33;;;4.50;99.90;;;;;;10382503;28;20316;-74
2022/12/07 01:57:32;;;;;;;11.10;8.20;;;4.50;99.90;;;;;;10390919;28;20217;-74
2022/12/07 02:02:55;;;;;;;10.57;7.70;;;4.40;99.90;;;;;;10383212;28;20566;-74
2022/12/07 02:07:57;;;;;;;11.87;7.63;;;4.40;99.90;;;;;;10354682;28;20262;-74
2022/12/07 02:13:29;;;;;;;11.90;8.20;;;4.40;99.90;;;;;;10383591;28;20637;-76
2022/12/07 02:18:36;;;;;;;10.10;7.90;;;4.50;99.90;;;;;;10400180;28;20208;-72
2022/12/07 02:23:48;;;;;;;11.33;8.13;;;4.50;99.90;;;;;;10398018;28;20311;-73
2022/12/07 02:29:09;;;;;;;11.90;9.10;;;4.60;99.90;;;;;;10385381;28;20718;-72
2022/12/07 02:34:29;;;;;;;11.33;7.93;;;4.60;99.90;;;;;;10378646;28;20221;-73
2022/12/07 02:39:39;;;;;;;11.17;7.80;;;4.60;99.90;;;;;;10389096;28;20307;-74
2022/12/07 02:44:40;;;;;;;11.03;8.33;;;4.60;99.90;;;;;;10392381;28;20239;-74
2022/12/07 02:49:41;;;;;;;11.90;8.50;;;4.60;99.90;;;;;;10392497;28;20300;-74
2022/12/07 02:54:42;;;;;;;10.90;8.10;;;4.70;99.90;;;;;;10391861;28;20232;-73
2022/12/07 03:00:02;;;;;;;11.60;7.97;;;4.70;99.90;;;;;;10384411;28;20235;-72
2022/12/07 03:05:30;;;;;;;11.57;8.20;;;4.70;99.90;;;;;;10389811;28;20247;-73
2022/12/07 03:10:55;;;;;;;13.73;8.83;;;4.70;99.90;;;;;;10384522;28;20583;-71
2022/12/07 03:16:08;;;;;;;12.93;9.10;;;4.70;99.90;;;;;;10388941;28;20229;-73
2022/12/07 03:21:14;;;;;;;12.23;7.87;;;4.70;99.90;;;;;;10393794;28;20327;-73
2022/12/07 03:26:17;;;;;;;10.63;7.90;;;4.70;99.90;;;;;;10388247;28;20755;-73
2022/12/07 03:31:32;;;;;;;10.50;8.07;;;4.70;99.90;;;;;;10387643;28;20227;-73
2022/12/07 03:36:38;;;;;;;11.10;8.17;;;4.70;99.90;;;;;;10388813;28;20247;-73
2022/12/07 03:41:39;;;;;;;11.73;8.40;;;4.70;99.90;;;;;;10398585;28;20216;-73
2022/12/07 03:46:43;;;;;;;11.90;8.67;;;4.70;99.90;;;;;;10392565;28;20214;-74
2022/12/07 03:52:12;;;;;;;12.33;8.47;;;4.70;99.90;;;;;;10389865;28;20600;-74
2022/12/07 03:57:13;;;;;;;14.20;8.37;;;4.70;99.90;;;;;;10394734;28;20295;-74
2022/12/07 04:02:15;;;;;;;13.00;8.63;;;4.70;99.90;;;;;;10378437;28;20206;-74
2022/12/07 04:07:16;;;;;;;13.50;8.50;;;4.70;99.90;;;;;;10389710;28;20237;-75
2022/12/07 04:12:16;;;;;;;10.67;8.27;;;4.70;99.90;;;;;;10403826;28;20267;-74
2022/12/07 04:17:17;;;;;;;11.43;8.53;;;4.70;99.90;;;;;;10398296;28;20347;-75
2022/12/07 04:22:17;;;;;;;12.33;8.33;;;4.70;99.90;;;;;;10387858;28;20236;-74
2022/12/07 04:27:18;;;;;;;12.00;8.10;;;4.70;99.90;;;;;;10393695;28;20247;-73
2022/12/07 04:32:18;;;;;;;12.47;8.83;;;4.70;99.90;;;;;;10395175;28;20217;-75
2022/12/07 04:37:19;;;;;;;12.43;8.77;;;4.70;99.90;;;;;;10392554;28;20221;-74
2022/12/07 04:42:20;;;;;;;11.27;8.73;;;4.70;99.90;;;;;;10375646;28;20217;-74
2022/12/07 04:47:20;;;;;;;12.87;8.43;;;4.60;99.90;;;;;;10398807;28;20217;-75
2022/12/07 04:52:21;;;;;;;11.87;8.77;;;4.70;99.90;;;;;;10407808;28;20267;-74
2022/12/07 04:57:22;;;;;;;10.70;7.73;;;4.70;99.90;;;;;;10394153;28;20216;-74
2022/12/07 05:02:22;;;;;;;10.00;7.83;;;4.70;99.90;;;;;;10402612;28;20691;-74
2022/12/07 05:07:23;;;;;;;11.80;8.40;;;4.70;99.90;;;;;;10378287;28;20221;-74
2022/12/07 05:12:23;;;;;;;16.03;9.33;;;4.80;99.90;;;;;;10392168;28;20239;-74
2022/12/07 05:17:27;;;;;;;11.83;8.27;;;4.80;99.90;;;;;;10387988;28;20243;-81
2022/12/07 05:22:28;;;;;;;13.30;8.30;;;4.80;99.90;;;;;;10388494;28;20266;-74
2022/12/07 05:27:32;;;;;;;11.93;8.00;;;4.70;99.90;;;;;;10386029;28;20271;-71
2022/12/07 05:32:33;;;;;;;11.17;8.17;;;4.70;99.90;;;;;;10397157;28;20217;-71
2022/12/07 05:37:33;;;;;;;10.23;7.80;;;4.70;99.90;;;;;;10382327;28;20723;-71
2022/12/07 05:42:34;;;;;;;10.30;7.90;;;4.70;99.90;;;;;;10391896;28;20620;-71
2022/12/07 05:47:35;;;;;;;12.37;8.10;;;4.70;99.90;;;;;;10402405;28;20228;-71
2022/12/07 05:52:36;;;;;;;13.93;9.67;;;4.70;99.90;;;;;;10379984;28;20240;-72
2022/12/07 05:57:36;;;;;;;11.40;7.50;;;4.70;99.90;;;;;;10386186;28;20307;-70
2022/12/07 06:02:37;;;;;;;12.97;8.07;;;4.70;99.90;;;;;;10390876;28;20209;-71
2022/12/07 06:07:37;;;;;;;10.77;7.90;;;4.70;99.90;;;;;;10384292;28;20209;-74
2022/12/07 06:12:39;;;;;;;9.70;7.67;;;4.70;99.90;;;;;;10391488;28;20232;-75
2022/12/07 06:17:39;;;;;;;11.67;7.33;;;4.70;99.90;;;;;;10394894;28;20719;-75
2022/12/07 06:22:40;;;;;;;9.27;7.00;;;4.80;99.90;;;;;;10398613;28;20224;-76
2022/12/07 06:27:41;;;;;;;11.70;7.93;;;4.80;99.90;;;;;;10388603;28;20272;-75
2022/12/07 06:32:41;;;;;;;13.70;8.20;;;4.80;99.90;;;;;;10393592;28;20221;-75
2022/12/07 06:37:42;;;;;;;10.90;7.83;;;4.80;99.90;;;;;;10396017;28;20695;-75
2022/12/07 06:42:42;;;;;;;10.23;7.67;;;4.80;99.90;;;;;;10400056;28;20215;-75
2022/12/07 06:47:43;;;;;;;11.07;7.70;;;4.90;99.90;;;;;;10399480;28;20217;-71
2022/12/07 06:52:43;;;;;;;11.13;7.77;;;4.90;99.90;;;;;;10401342;28;20628;-73
2022/12/07 06:57:47;;;;;;;10.70;7.87;;;4.90;99.90;;;;;;10398997;28;20227;-72
2022/12/07 07:02:48;;;;;;;10.50;7.53;;;4.90;99.90;;;;;;10404156;28;20252;-73
2022/12/07 07:07:50;;;;;;;10.47;8.10;;;4.90;99.90;;;;;;10397699;28;20221;-66
2022/12/07 07:12:53;;;;;;;9.90;7.40;;;4.90;99.90;;;;;;10403777;28;20232;-67
2022/12/07 07:17:53;;;;;;;10.30;7.80;;;4.90;99.90;;;;;;10393091;28;20228;-66
2022/12/07 07:22:55;;;;;;;11.67;8.10;;;4.90;99.90;;;;;;10399076;28;20282;-69
2022/12/07 07:27:56;;;;;;;12.07;8.53;;;4.90;99.90;;;;;;10406073;28;20226;-67
2022/12/07 07:33:00;;;;;;;10.87;8.53;;;4.90;99.90;;;;;;10392670;28;20242;-66
2022/12/07 07:38:01;;;;;;;12.90;8.20;;;4.90;99.90;;;;;;10427059;28;20235;-73
2022/12/07 07:43:02;;;;;;;12.17;8.50;;;4.90;99.90;;;;;;10398106;28;20626;-73
2022/12/07 07:48:03;;;;;;;13.20;7.90;;;5.00;99.90;;;;;;10401242;28;20794;-74
2022/12/07 07:53:03;;;;;;;11.03;8.17;;;5.00;99.90;;;;;;10399799;28;20224;-73
2022/12/07 07:58:39;;;;;;;10.37;7.90;;;5.10;99.90;;;;;;10406807;28;20236;-73
2022/12/07 08:03:40;;;;;;;12.30;8.40;;;5.10;99.90;;;;;;10402976;28;20217;-70
2022/12/07 08:08:42;;;;;;;11.40;8.50;;;5.20;99.90;;;;;;10385510;28;20252;-71
2022/12/07 08:13:46;;;;;;;11.03;8.37;;;5.30;99.90;;;;;;10390549;28;20274;-70
2022/12/07 08:18:47;;;;;;;10.90;8.20;;;5.40;99.90;;;;;;10396425;28;20247;-71
2022/12/07 08:23:47;;;;;;;13.03;7.53;;;5.50;99.90;;;;;;10404023;28;20228;-71
2022/12/07 08:28:48;;;;;;;11.13;8.13;;;5.60;99.90;;;;;;10385642;28;20298;-71
2022/12/07 08:33:49;;;;;;;19.00;11.57;;;5.80;99.90;;;;;;10398638;28;20260;-71
2022/12/07 08:38:50;;;;;;;13.13;8.10;;;6.00;99.90;;;;;;10380227;28;20228;-71
2022/12/07 08:43:51;;;;;;;11.67;8.13;;;6.10;99.90;;;;;;10401980;28;20240;-71
2022/12/07 08:49:03;;;;;;;9.87;7.40;;;6.10;99.90;;;;;;10398449;28;20216;-71
2022/12/07 08:54:08;;;;;;;12.00;8.33;;;6.00;99.90;;;;;;10397832;28;20704;-71
2022/12/07 08:59:10;;;;;;;11.30;8.20;;;5.90;99.90;;;;;;10380449;28;20260;-71
2022/12/07 09:04:11;;;;;;;15.57;9.57;;;5.80;99.90;;;;;;10397338;28;20640;-71
2022/12/07 09:09:13;;;;;;;11.50;8.10;;;6.10;99.90;;;;;;10384110;28;20242;-73
2022/12/07 09:14:14;;;;;;;10.83;7.73;;;7.10;99.90;;;;;;10385189;28;20228;-72
2022/12/07 09:19:15;;;;;;;9.10;7.37;;;8.30;99.90;;;;;;10390996;28;20225;-71
2022/12/07 09:24:15;;;;;;;10.03;7.47;;;8.00;99.90;;;;;;10390142;28;20216;-71
2022/12/07 09:29:16;;;;;;;10.17;7.73;;;7.70;99.90;;;;;;10392387;28;20216;-72
2022/12/07 09:34:17;;;;;;;10.00;6.80;;;8.60;99.90;;;;;;10401096;28;20223;-72
2022/12/07 09:39:19;;;;;;;9.77;6.10;;;10.40;99.90;;;;;;10392152;28;20232;-72
2022/12/07 09:44:26;;;;;;;8.37;6.67;;;14.10;99.90;;;;;;10386133;28;20219;-72
2022/12/07 09:49:30;;;;;;;7.80;6.67;;;14.90;99.90;;;;;;10400661;28;20223;-72
2022/12/07 09:54:35;;;;;;;9.20;7.47;;;12.90;99.90;;;;;;10403506;28;20281;-72
2022/12/07 09:59:36;;;;;;;10.07;7.70;;;11.30;99.90;;;;;;10397252;28;20220;-72
2022/12/07 10:04:37;;;;;;;13.43;8.70;;;10.00;99.90;;;;;;10393160;28;20226;-72
2022/12/07 10:09:38;;;;;;;13.70;8.07;;;9.00;99.90;;;;;;10398576;28;20219;-72
2022/12/07 10:14:52;;;;;;;13.80;8.57;;;8.30;99.90;;;;;;10390256;28;20229;-71
2022/12/07 10:20:12;;;;;;;12.50;8.30;;;8.00;99.90;;;;;;10397951;28;20224;-70
2022/12/07 10:25:21;;;;;;;11.53;8.00;;;8.00;99.90;;;;;;10461570;28;20227;-71
2022/12/07 10:30:22;;;;;;;12.70;7.97;;;7.80;99.90;;;;;;10388903;28;20192;-71
2022/12/07 10:35:30;;;;;;;11.33;8.20;;;7.80;99.90;;;;;;10374949;28;20188;-71
2022/12/07 10:40:35;;;;;;;11.07;8.07;;;8.00;99.90;;;;;;10384252;28;20322;-71
2022/12/07 10:46:00;;;;;;;9.17;7.07;;;8.60;99.90;;;;;;10383845;28;20271;-71
2022/12/07 10:51:25;;;;;;;9.97;7.20;;;9.80;99.90;;;;;;10390126;28;20228;-72
2022/12/07 10:56:42;;;;;;;10.00;5.77;;;10.60;99.90;;;;;;10376969;28;20708;-70
2022/12/07 11:02:29;;;;;;;9.63;5.47;;;10.50;99.90;;;;;;10421596;28;20261;-71
2022/12/07 11:07:47;;;;;;;8.47;6.10;;;9.80;99.90;;;;;;10404122;28;20317;-72
2022/12/07 11:13:02;;;;;;;10.50;5.00;;;9.80;99.90;;;;;;10390968;28;20235;-70
2022/12/07 11:18:28;;;;;;;12.60;5.13;;;9.80;99.90;;;;;;10401808;28;20366;-69
2022/12/07 11:24:02;;;;;;;7.77;4.73;;;9.60;99.90;;;;;;10409522;28;20245;-70
2022/12/07 11:29:22;;;;;;;6.00;4.30;;;9.50;99.90;;;;;;10394754;28;20224;-70
2022/12/07 11:34:59;;;;;;;10.03;4.90;;;9.40;99.90;;;;;;10395512;28;20660;-71
2022/12/07 11:40:35;;;;;;;6.33;4.17;;;9.30;99.90;;;;;;10398985;28;20306;-72
2022/12/07 11:45:42;;;;;;;6.63;4.33;;;9.00;99.90;;;;;;10437001;28;20257;-70
2022/12/07 11:50:47;;;;;;;6.07;4.00;;;9.00;99.90;;;;;;10391903;28;20224;-70
2022/12/07 11:55:56;;;;;;;5.03;3.47;;;9.00;99.90;;;;;;10393123;28;20235;-70
2022/12/07 12:01:05;;;;;;;7.60;3.33;;;8.70;99.90;;;;;;10393154;28;20223;-71
2022/12/07 12:06:06;;;;;;;8.87;3.30;;;8.50;99.90;;;;;;10396934;28;20259;-70
2022/12/07 12:11:43;;;;;;;5.37;3.07;;;8.30;99.90;;;;;;10414310;28;20219;-71
2022/12/07 12:17:12;;;;;;;5.80;3.87;;;8.10;99.90;;;;;;10390060;28;20235;-70
2022/12/07 12:22:17;;;;;;;7.57;3.67;;;8.10;99.90;;;;;;10409986;28;20226;-71
2022/12/07 12:27:29;;;;;;;5.80;2.80;;;8.20;99.90;;;;;;10404905;28;20263;-72
2022/12/07 12:32:40;;;;;;;7.00;3.17;;;8.20;99.90;;;;;;10405480;28;20233;-73
2022/12/07 12:37:42;;;;;;;4.10;2.70;;;8.20;99.90;;;;;;10395233;28;20223;-73
2022/12/07 12:42:48;;;;;;;5.47;3.00;;;8.10;99.90;;;;;;10388544;28;20311;-73
2022/12/07 12:48:01;;;;;;;7.07;2.60;;;8.10;99.90;;;;;;10396942;28;20278;-73
2022/12/07 12:53:04;;;;;;;7.00;3.00;;;8.10;99.90;;;;;;10379637;28;20229;-73
2022/12/07 12:58:19;;;;;;;4.80;2.43;;;8.00;99.90;;;;;;10380873;28;20236;-73
2022/12/07 13:03:30;;;;;;;5.33;3.27;;;8.00;99.90;;;;;;10404967;28;20231;-72
2022/12/07 13:08:30;;;;;;;4.33;2.20;;;8.20;99.90;;;;;;10417521;28;20680;-71
2022/12/07 13:13:33;;;;;;;5.30;2.03;;;8.00;99.90;;;;;;10389842;28;20220;-72
2022/12/07 13:18:33;;;;;;;5.77;2.50;;;7.80;99.90;;;;;;10385297;28;20222;-71
2022/12/07 13:23:51;;;;;;;5.40;2.53;;;7.60;99.90;;;;;;10385436;28;20217;-72
2022/12/07 13:29:04;;;;;;;5.13;2.43;;;7.40;99.90;;;;;;10396090;28;20248;-71
2022/12/07 13:34:33;;;;;;;5.73;3.17;;;7.40;99.90;;;;;;10400688;28;20218;-72
2022/12/07 13:39:36;;;;;;;5.30;2.87;;;7.40;99.90;;;;;;10397243;28;20224;-71
2022/12/07 13:44:41;;;;;;;4.40;2.60;;;7.40;99.90;;;;;;10404693;28;20290;-72
2022/12/07 13:49:55;;;;;;;5.03;2.77;;;7.50;99.90;;;;;;10396304;28;20221;-72
2022/12/07 13:55:08;;;;;;;3.40;2.40;;;7.70;99.90;;;;;;10419701;28;20584;-70
2022/12/07 14:00:18;;;;;;;5.30;2.20;;;7.80;99.90;;;;;;10441999;28;20933;-71
2022/12/07 14:05:34;;;;;;;4.80;2.50;;;7.70;99.90;;;;;;10401890;28;20192;-71
2022/12/07 14:10:38;;;;;;;4.70;2.20;;;7.70;99.90;;;;;;10397724;28;20768;-71
2022/12/07 14:15:39;;;;;;;4.30;1.73;;;7.60;99.90;;;;;;10404372;28;20217;-71
2022/12/07 14:20:41;;;;;;;6.93;2.13;;;7.50;99.90;;;;;;10404947;28;20366;-72
2022/12/07 14:25:47;;;;;;;2.90;1.70;;;7.40;99.90;;;;;;10396790;28;20582;-71
2022/12/07 14:30:47;;;;;;;3.67;2.10;;;7.30;99.90;;;;;;10383263;28;20791;-71
2022/12/07 14:35:49;;;;;;;5.37;1.80;;;7.30;99.90;;;;;;10405311;28;20213;-71
2022/12/07 14:40:50;;;;;;;3.93;1.90;;;7.30;99.90;;;;;;10406340;28;20226;-72
2022/12/07 14:45:50;;;;;;;6.50;2.57;;;7.30;99.90;;;;;;10391919;28;20225;-72
2022/12/07 14:50:52;;;;;;;5.20;2.40;;;7.20;99.90;;;;;;10428224;28;20212;-71
2022/12/07 14:55:53;;;;;;;7.10;2.70;;;7.10;99.90;;;;;;10436799;28;20880;-72
2022/12/07 15:00:54;;;;;;;7.47;3.13;;;7.10;99.90;;;;;;10428875;28;20303;-71
2022/12/07 15:05:54;;;;;;;7.83;2.50;;;7.00;99.90;;;;;;10445864;28;20244;-72
2022/12/07 15:10:55;;;;;;;7.03;2.40;;;7.00;99.90;;;;;;10449806;28;20212;-71
2022/12/07 15:15:55;;;;;;;6.13;2.50;;;6.90;99.90;;;;;;10444287;28;20738;-71
2022/12/07 15:20:56;;;;;;;4.97;2.20;;;6.90;99.90;;;;;;10445714;28;20216;-71
2022/12/07 15:25:56;;;;;;;3.03;2.40;;;6.90;99.90;;;;;;10456178;28;20223;-69
2022/12/07 15:30:57;;;;;;;3.47;2.30;;;6.80;99.90;;;;;;10446885;28;20634;-71
2022/12/07 15:35:59;;;;;;;3.03;1.90;;;6.70;99.90;;;;;;10443769;28;20216;-71
2022/12/07 15:40:59;;;;;;;2.70;2.00;;;6.50;99.90;;;;;;10430070;28;20224;-71
2022/12/07 15:46:00;;;;;;;3.63;2.27;;;6.50;99.90;;;;;;10441450;28;20208;-71
2022/12/07 15:51:05;;;;;;;3.43;2.30;;;6.40;99.90;;;;;;10448537;28;20219;-71
2022/12/07 15:56:07;;;;;;;3.80;2.47;;;6.40;99.90;;;;;;10423442;28;20232;-72
2022/12/07 16:01:18;;;;;;;4.73;2.33;;;6.40;99.90;;;;;;10429540;28;20262;-73
2022/12/07 16:06:19;;;;;;;6.87;3.00;;;6.40;99.90;;;;;;10424579;28;20266;-72
2022/12/07 16:11:20;;;;;;;5.43;3.27;;;6.40;99.90;;;;;;10444030;28;20578;-72
2022/12/07 16:16:22;;;;;;;3.13;1.97;;;6.40;99.90;;;;;;10430070;28;20323;-72
2022/12/07 16:21:22;;;;;;;3.03;2.20;;;6.30;99.90;;;;;;10437559;28;20308;-72
2022/12/07 16:26:23;;;;;;;3.23;1.70;;;6.30;99.90;;;;;;10443102;28;20740;-72
2022/12/07 16:31:26;;;;;;;3.53;1.53;;;6.30;99.90;;;;;;10427483;28;20243;-70
2022/12/07 16:36:27;;;;;;;3.60;1.43;;;6.20;99.90;;;;;;10428085;28;20316;-71
2022/12/07 16:41:27;;;;;;;3.50;1.37;;;6.10;99.90;;;;;;10471855;28;20219;-72
2022/12/07 16:46:28;;;;;;;3.33;1.70;;;6.00;99.90;;;;;;10447710;28;20219;-72
2022/12/07 16:51:29;;;;;;;3.17;1.83;;;6.00;99.90;;;;;;10457150;28;20224;-72
2022/12/07 16:56:30;;;;;;;5.80;1.90;;;6.00;99.90;;;;;;10429183;28;20229;-72
2022/12/07 17:01:31;;;;;;;6.07;2.27;;;6.00;99.90;;;;;;10420971;28;20230;-72
2022/12/07 17:06:32;;;;;;;2.97;1.70;;;6.00;99.90;;;;;;10423908;28;20235;-72
2022/12/07 17:11:32;;;;;;;4.80;2.30;;;6.00;99.90;;;;;;10431329;28;20624;-73
2022/12/07 17:16:34;;;;;;;7.80;3.53;;;6.00;99.90;;;;;;10442887;28;20219;-72
2022/12/07 17:21:35;;;;;;;3.53;2.30;;;6.00;99.90;;;;;;10443682;28;20230;-72
2022/12/07 17:26:37;;;;;;;5.53;2.70;;;5.90;99.90;;;;;;10430788;28;20221;-71
2022/12/07 17:31:38;;;;;;;5.43;2.80;;;5.90;99.90;;;;;;10427482;28;20224;-73
2022/12/07 17:36:39;;;;;;;7.23;3.50;;;5.90;99.90;;;;;;10428449;28;20231;-72
2022/12/07 17:42:45;;;;;;;8.53;3.77;;;5.90;99.90;;;;;;10424321;28;20752;-71
2022/12/07 17:47:10;;;;;;;5.90;3.07;;;5.90;99.90;;;;;;10416893;28;20219;-71
2022/12/07 17:57:29;;;;;;;7.03;2.83;;;5.90;99.90;;;;;;10435430;28;20239;-71
2022/12/07 18:02:31;;;;;;;4.13;2.90;;;5.80;99.90;;;;;;10426282;28;20219;-71
2022/12/07 18:07:32;;;;;;;6.03;2.80;;;5.80;99.90;;;;;;10439250;28;20219;-70
2022/12/07 18:12:33;;;;;;;4.43;2.83;;;5.80;99.90;;;;;;10437319;28;20281;-71
2022/12/07 18:17:33;;;;;;;6.23;3.20;;;5.70;99.90;;;;;;10446179;28;20227;-71
2022/12/07 18:22:36;;;;;;;5.70;3.70;;;5.70;99.90;;;;;;10442510;28;20219;-71
2022/12/07 18:27:36;;;;;;;6.47;3.47;;;5.70;99.90;;;;;;10428141;28;20239;-71
2022/12/07 18:32:37;;;;;;;4.90;3.47;;;5.70;99.90;;;;;;10434194;28;20219;-70
2022/12/07 18:37:39;;;;;;;4.07;3.30;;;5.60;99.90;;;;;;10443567;28;20239;-71
2022/12/07 18:42:39;;;;;;;6.50;3.77;;;5.60;99.90;;;;;;10433021;28;20303;-71
2022/12/07 18:47:40;;;;;;;5.43;3.53;;;5.60;99.90;;;;;;10438235;28;20646;-71
2022/12/07 18:52:41;;;;;;;5.80;3.33;;;5.60;99.90;;;;;;10439167;28;20231;-71
2022/12/07 18:57:41;;;;;;;6.77;3.80;;;5.60;99.90;;;;;;10426436;28;20224;-71
2022/12/07 19:02:42;;;;;;;6.43;4.67;;;5.50;99.90;;;;;;10442684;28;20852;-72
2022/12/07 19:07:43;;;;;;;4.70;4.17;;;5.50;99.90;;;;;;10425321;28;20555;-74
2022/12/07 19:12:47;;;;;;;7.13;4.47;;;5.50;99.90;;;;;;10431136;28;20220;-74
2022/12/07 19:17:47;;;;;;;6.73;4.80;;;5.40;99.90;;;;;;10432500;28;20247;-74
2022/12/07 19:22:48;;;;;;;9.60;5.20;;;5.40;99.90;;;;;;10434402;28;20212;-72
2022/12/07 19:27:48;;;;;;;10.53;6.37;;;5.30;99.90;;;;;;10432254;28;20299;-72
2022/12/07 19:32:49;;;;;;;8.43;5.50;;;5.30;99.90;;;;;;10421473;28;20228;-72
2022/12/07 19:37:49;;;;;;;9.03;6.17;;;5.20;99.90;;;;;;10428755;28;20228;-72
2022/12/07 19:42:53;;;;;;;8.83;5.60;;;5.10;99.90;;;;;;10435427;28;20722;-71
2022/12/07 19:47:54;;;;;;;8.67;6.30;;;5.10;99.90;;;;;;10426975;28;20248;-72
2022/12/07 19:52:55;;;;;;;8.13;6.13;;;5.10;99.90;;;;;;10437324;28;20216;-72
2022/12/07 19:57:55;;;;;;;8.30;6.13;;;5.10;99.90;;;;;;10443173;28;20258;-72
2022/12/07 20:02:56;;;;;;;10.40;6.67;;;5.10;99.90;;;;;;10440739;28;20233;-72
2022/12/07 20:07:56;;;;;;;10.37;6.50;;;5.10;99.90;;;;;;10432320;28;20212;-72
2022/12/07 20:18:16;;;;;;;11.20;7.07;;;5.10;99.90;;;;;;10423961;28;20703;-73
2022/12/07 20:23:17;;;;;;;10.40;7.00;;;5.10;99.90;;;;;;10438985;28;20224;-73
2022/12/07 20:28:18;;;;;;;9.43;7.17;;;5.20;99.90;;;;;;10432419;28;20216;-72
2022/12/07 20:33:19;;;;;;;9.17;7.07;;;5.20;99.90;;;;;;10426678;28;20311;-72
2022/12/07 20:38:20;;;;;;;10.50;7.70;;;5.10;99.90;;;;;;10440745;28;20238;-72
2022/12/07 20:43:20;;;;;;;9.50;7.23;;;5.10;99.90;;;;;;10434161;28;20212;-74
2022/12/07 20:48:22;;;;;;;12.37;7.07;;;5.10;99.90;;;;;;10441947;28;20216;-75
2022/12/07 20:53:22;;;;;;;12.33;7.27;;;5.10;99.90;;;;;;10432637;28;20220;-74
2022/12/07 20:58:23;;;;;;;11.47;6.93;;;5.00;99.90;;;;;;10432145;28;20234;-75
2022/12/07 21:03:23;;;;;;;10.67;7.27;;;5.10;99.90;;;;;;10429975;28;20251;-71
2022/12/07 21:08:24;;;;;;;14.10;7.63;;;5.10;99.90;;;;;;10418001;28;20661;-70
2022/12/07 21:13:26;;;;;;;12.63;8.47;;;5.10;99.90;;;;;;10430527;28;20804;-73
2022/12/07 21:18:28;;;;;;;11.37;8.87;;;5.10;99.90;;;;;;10433035;28;20229;-71
2022/12/07 21:23:29;;;;;;;13.40;7.97;;;5.10;99.90;;;;;;10432187;28;20208;-71
2022/12/07 21:28:29;;;;;;;12.70;8.67;;;5.00;99.90;;;;;;10428013;28;20706;-71
2022/12/07 21:33:31;;;;;;;13.27;9.13;;;5.00;99.90;;;;;;10428228;28;20259;-70
2022/12/07 21:38:32;;;;;;;14.50;9.90;;;5.00;99.90;;;;;;10432845;28;20821;-70
2022/12/07 21:43:33;;;;;;;15.37;9.73;;;5.00;99.90;;;;;;10448815;28;20248;-71
2022/12/07 21:48:33;;;;;;;11.33;8.80;;;5.00;99.90;;;;;;10431056;28;20837;-73
2022/12/07 21:53:36;;;;;;;14.70;10.60;;;5.00;99.90;;;;;;10417783;28;20232;-73
2022/12/07 21:58:37;;;;;;;13.97;10.07;;;5.00;99.90;;;;;;10422650;28;20228;-74
2022/12/07 22:03:37;;;;;;;15.27;10.07;;;5.10;99.90;;;;;;10441243;28;20701;-72
2022/12/07 22:08:38;;;;;;;13.27;9.87;;;5.10;99.90;;;;;;10444107;28;20239;-71
2022/12/07 22:19:07;;;;;;;16.70;11.03;;;5.10;99.90;;;;;;10430258;28;20271;-71
2022/12/07 22:24:09;;;;;;;14.03;10.30;;;5.10;99.90;;;;;;10442029;28;20208;-73
2022/12/07 22:29:10;;;;;;;15.80;11.30;;;5.10;99.90;;;;;;10428170;28;20330;-72
2022/12/07 22:34:16;;;;;;;15.03;11.47;;;5.10;99.90;;;;;;10442337;28;20258;-72
2022/12/07 22:39:16;;;;;;;16.20;10.50;;;5.10;99.90;;;;;;10413949;28;20715;-71
2022/12/07 22:44:17;;;;;;;16.23;10.80;;;5.10;99.90;;;;;;10420406;28;20315;-72
2022/12/07 22:49:18;;;;;;;14.57;10.33;;;5.10;99.90;;;;;;10428998;28;20269;-72
2022/12/07 22:54:19;;;;;;;14.80;11.47;;;5.10;99.90;;;;;;10429638;28;20699;-72
2022/12/07 22:59:19;;;;;;;18.67;12.30;;;5.10;99.90;;;;;;10428428;28;20289;-72
2022/12/07 23:04:20;;;;;;;18.83;11.27;;;5.10;99.90;;;;;;10437827;28;20216;-72
2022/12/07 23:09:20;;;;;;;17.07;11.70;;;5.00;99.90;;;;;;10435204;28;20258;-72
2022/12/07 23:14:31;;;;;;;15.80;12.43;;;5.00;99.90;;;;;;10436284;28;20232;-73
2022/12/07 23:19:32;;;;;;;18.43;12.30;;;5.00;99.90;;;;;;10446838;28;20231;-74
2022/12/07 23:24:32;;;;;;;16.73;11.97;;;5.00;99.90;;;;;;10443766;28;20584;-73
2022/12/07 23:29:33;;;;;;;18.07;12.67;;;5.00;99.90;;;;;;10437782;28;20249;-73
2022/12/07 23:34:33;;;;;;;15.70;11.87;;;5.00;99.90;;;;;;10430737;28;20231;-74
2022/12/07 23:39:34;;;;;;;15.97;12.13;;;5.00;99.90;;;;;;10433068;28;20701;-72
2022/12/07 23:44:35;;;;;;;16.10;12.63;;;5.00;99.90;;;;;;10429573;28;20355;-73
2022/12/07 23:49:35;;;;;;;16.27;12.10;;;5.00;99.90;;;;;;10442732;28;20215;-73
2022/12/07 23:54:36;;;;;;;17.57;12.70;;;5.00;99.90;;;;;;10428749;28;20286;-73
2022/12/07 23:59:36;;;;;;;19.23;13.17;;;5.00;99.90;;;;;;10433302;28;20703;-71
